sensor_id;sensor_type;location;lat;lon;timestamp;temperature;humidity
28087;DHT22;15392;48.912;8.380;2022-12-07T00:01:24;10.20;58.70
28087;DHT22;15392;48.912;8.380;2022-12-07T00:03:52;10.20;58.70
28087;DHT22;15392;48.912;8.380;2022-12-07T00:06:19;10.20;58.70
28087;DHT22;15392;48.912;8.380;2022-12-07T00:08:46;10.20;58.80
28087;DHT22;15392;48.912;8.380;2022-12-07T00:11:14;10.20;58.80
28087;DHT22;15392;48.912;8.380;2022-12-07T00:13:42;10.20;58.80
28087;DHT22;15392;48.912;8.380;2022-12-07T00:16:14;10.20;58.80
28087;DHT22;15392;48.912;8.380;2022-12-07T00:18:41;10.20;58.80
28087;DHT22;15392;48.912;8.380;2022-12-07T00:21:13;10.20;58.80
28087;DHT22;15392;48.912;8.380;2022-12-07T00:23:41;10.20;58.70
28087;DHT22;15392;48.912;8.380;2022-12-07T00:26:23;10.10;58.60
28087;DHT22;15392;48.912;8.380;2022-12-07T00:28:55;10.20;58.70
28087;DHT22;15392;48.912;8.380;2022-12-07T00:31:26;10.10;58.60
28087;DHT22;15392;48.912;8.380;2022-12-07T00:33:52;10.10;58.60
28087;DHT22;15392;48.912;8.380;2022-12-07T00:36:20;10.10;58.60
28087;DHT22;15392;48.912;8.380;2022-12-07T00:38:47;10.10;58.60
28087;DHT22;15392;48.912;8.380;2022-12-07T00:41:15;10.10;58.70
28087;DHT22;15392;48.912;8.380;2022-12-07T00:43:47;10.00;58.70
28087;DHT22;15392;48.912;8.380;2022-12-07T00:46:14;10.00;58.70
28087;DHT22;15392;48.912;8.380;2022-12-07T00:48:41;10.00;58.70
28087;DHT22;15392;48.912;8.380;2022-12-07T00:51:08;10.00;58.70
28087;DHT22;15392;48.912;8.380;2022-12-07T00:53:35;10.00;58.80
28087;DHT22;15392;48.912;8.380;2022-12-07T00:56:06;9.90;58.80
28087;DHT22;15392;48.912;8.380;2022-12-07T00:58:42;10.00;58.90
28087;DHT22;15392;48.912;8.380;2022-12-07T01:01:09;9.90;58.90
28087;DHT22;15392;48.912;8.380;2022-12-07T01:03:36;9.90;58.90
28087;DHT22;15392;48.912;8.380;2022-12-07T01:06:03;9.90;58.90
28087;DHT22;15392;48.912;8.380;2022-12-07T01:08:29;9.90;59.50
28087;DHT22;15392;48.912;8.380;2022-12-07T01:11:04;9.90;59.00
28087;DHT22;15392;48.912;8.380;2022-12-07T01:13:33;9.90;59.10
28087;DHT22;15392;48.912;8.380;2022-12-07T01:16:01;9.90;59.00
28087;DHT22;15392;48.912;8.380;2022-12-07T01:18:29;9.90;59.00
28087;DHT22;15392;48.912;8.380;2022-12-07T01:23:35;9.90;59.10
28087;DHT22;15392;48.912;8.380;2022-12-07T01:26:04;9.90;59.10
28087;DHT22;15392;48.912;8.380;2022-12-07T01:28:32;9.90;59.70
28087;DHT22;15392;48.912;8.380;2022-12-07T01:31:09;9.90;59.10
28087;DHT22;15392;48.912;8.380;2022-12-07T01:33:41;9.90;59.10
28087;DHT22;15392;48.912;8.380;2022-12-07T01:36:26;9.90;59.20
28087;DHT22;15392;48.912;8.380;2022-12-07T01:39:02;9.90;59.30
28087;DHT22;15392;48.912;8.380;2022-12-07T01:41:32;9.90;59.30
28087;DHT22;15392;48.912;8.380;2022-12-07T01:46:56;9.90;59.30
28087;DHT22;15392;48.912;8.380;2022-12-07T01:49:39;9.90;58.90
28087;DHT22;15392;48.912;8.380;2022-12-07T01:52:26;9.90;58.90
28087;DHT22;15392;48.912;8.380;2022-12-07T01:55:00;9.90;59.00
28087;DHT22;15392;48.912;8.380;2022-12-07T01:57:29;9.90;59.00
28087;DHT22;15392;48.912;8.380;2022-12-07T01:59:57;9.90;59.00
28087;DHT22;15392;48.912;8.380;2022-12-07T02:02:26;9.90;59.00
28087;DHT22;15392;48.912;8.380;2022-12-07T02:04:56;9.90;59.00
28087;DHT22;15392;48.912;8.380;2022-12-07T02:07:23;9.90;59.00
28087;DHT22;15392;48.912;8.380;2022-12-07T02:09:49;9.90;59.00
28087;DHT22;15392;48.912;8.380;2022-12-07T02:12:15;9.90;59.00
28087;DHT22;15392;48.912;8.380;2022-12-07T02:14:41;9.90;58.90
28087;DHT22;15392;48.912;8.380;2022-12-07T02:20:03;9.90;58.90
28087;DHT22;15392;48.912;8.380;2022-12-07T02:22:47;9.90;58.80
28087;DHT22;15392;48.912;8.380;2022-12-07T02:25:42;9.90;58.70
28087;DHT22;15392;48.912;8.380;2022-12-07T02:31:18;9.80;58.60
28087;DHT22;15392;48.912;8.380;2022-12-07T02:33:57;9.80;58.60
28087;DHT22;15392;48.912;8.380;2022-12-07T02:36:34;9.80;58.80
28087;DHT22;15392;48.912;8.380;2022-12-07T02:39:16;9.80;58.80
28087;DHT22;15392;48.912;8.380;2022-12-07T02:41:47;9.80;58.90
28087;DHT22;15392;48.912;8.380;2022-12-07T02:44:20;9.80;59.00
28087;DHT22;15392;48.912;8.380;2022-12-07T02:46:59;9.80;59.00
28087;DHT22;15392;48.912;8.380;2022-12-07T02:49:28;9.80;59.10
28087;DHT22;15392;48.912;8.380;2022-12-07T02:51:54;9.80;59.00
28087;DHT22;15392;48.912;8.380;2022-12-07T02:54:21;9.90;59.10
28087;DHT22;15392;48.912;8.380;2022-12-07T02:56:56;9.80;59.10
28087;DHT22;15392;48.912;8.380;2022-12-07T03:00:09;9.90;59.10
28087;DHT22;15392;48.912;8.380;2022-12-07T03:02:58;9.80;59.10
28087;DHT22;15392;48.912;8.380;2022-12-07T03:05:39;9.80;59.20
28087;DHT22;15392;48.912;8.380;2022-12-07T03:14:23;9.80;59.40
28087;DHT22;15392;48.912;8.380;2022-12-07T03:16:59;9.80;59.30
28087;DHT22;15392;48.912;8.380;2022-12-07T03:19:31;9.90;59.20
28087;DHT22;15392;48.912;8.380;2022-12-07T03:22:02;9.80;59.10
28087;DHT22;15392;48.912;8.380;2022-12-07T03:24:44;9.80;59.10
28087;DHT22;15392;48.912;8.380;2022-12-07T03:27:22;9.80;59.10
28087;DHT22;15392;48.912;8.380;2022-12-07T03:29:54;9.90;59.10
28087;DHT22;15392;48.912;8.380;2022-12-07T03:32:45;9.90;59.10
28087;DHT22;15392;48.912;8.380;2022-12-07T03:38:15;9.80;58.90
28087;DHT22;15392;48.912;8.380;2022-12-07T03:41:12;9.80;58.80
28087;DHT22;15392;48.912;8.380;2022-12-07T03:43:41;9.80;58.80
28087;DHT22;15392;48.912;8.380;2022-12-07T03:49:26;9.70;58.60
28087;DHT22;15392;48.912;8.380;2022-12-07T03:52:21;9.70;58.60
28087;DHT22;15392;48.912;8.380;2022-12-07T03:55:18;9.70;58.60
28087;DHT22;15392;48.912;8.380;2022-12-07T03:57:51;9.60;58.60
28087;DHT22;15392;48.912;8.380;2022-12-07T04:00:20;9.50;58.60
28087;DHT22;15392;48.912;8.380;2022-12-07T04:02:46;9.50;58.70
28087;DHT22;15392;48.912;8.380;2022-12-07T04:05:12;9.50;58.90
28087;DHT22;15392;48.912;8.380;2022-12-07T04:07:38;9.50;58.90
28087;DHT22;15392;48.912;8.380;2022-12-07T04:10:05;9.50;58.90
28087;DHT22;15392;48.912;8.380;2022-12-07T04:12:31;9.50;58.80
28087;DHT22;15392;48.912;8.380;2022-12-07T04:14:56;9.50;58.80
28087;DHT22;15392;48.912;8.380;2022-12-07T04:17:22;9.50;58.80
28087;DHT22;15392;48.912;8.380;2022-12-07T04:19:48;9.50;58.70
28087;DHT22;15392;48.912;8.380;2022-12-07T04:22:14;9.50;58.80
28087;DHT22;15392;48.912;8.380;2022-12-07T04:24:39;9.50;58.90
28087;DHT22;15392;48.912;8.380;2022-12-07T04:27:05;9.40;58.90
28087;DHT22;15392;48.912;8.380;2022-12-07T04:29:31;9.50;58.90
28087;DHT22;15392;48.912;8.380;2022-12-07T04:31:57;9.50;59.00
28087;DHT22;15392;48.912;8.380;2022-12-07T04:34:22;9.40;59.00
28087;DHT22;15392;48.912;8.380;2022-12-07T04:36:48;9.50;59.10
28087;DHT22;15392;48.912;8.380;2022-12-07T04:39:20;9.50;59.40
28087;DHT22;15392;48.912;8.380;2022-12-07T04:41:51;9.40;58.80
28087;DHT22;15392;48.912;8.380;2022-12-07T04:44:18;9.40;58.60
28087;DHT22;15392;48.912;8.380;2022-12-07T04:46:45;9.40;58.70
28087;DHT22;15392;48.912;8.380;2022-12-07T04:49:11;9.40;58.60
28087;DHT22;15392;48.912;8.380;2022-12-07T04:51:38;9.40;58.60
28087;DHT22;15392;48.912;8.380;2022-12-07T04:54:04;9.30;58.60
28087;DHT22;15392;48.912;8.380;2022-12-07T04:56:30;9.30;58.70
28087;DHT22;15392;48.912;8.380;2022-12-07T04:58:56;9.30;58.70
28087;DHT22;15392;48.912;8.380;2022-12-07T05:01:22;9.30;58.70
28087;DHT22;15392;48.912;8.380;2022-12-07T05:03:48;9.20;58.70
28087;DHT22;15392;48.912;8.380;2022-12-07T05:06:14;9.20;58.80
28087;DHT22;15392;48.912;8.380;2022-12-07T05:08:41;9.20;58.70
28087;DHT22;15392;48.912;8.380;2022-12-07T05:11:09;9.20;59.40
28087;DHT22;15392;48.912;8.380;2022-12-07T05:13:55;9.20;58.80
28087;DHT22;15392;48.912;8.380;2022-12-07T05:16:21;9.20;58.70
28087;DHT22;15392;48.912;8.380;2022-12-07T05:18:47;9.20;58.80
28087;DHT22;15392;48.912;8.380;2022-12-07T05:21:13;9.10;58.80
28087;DHT22;15392;48.912;8.380;2022-12-07T05:23:38;9.10;58.80
28087;DHT22;15392;48.912;8.380;2022-12-07T05:26:04;9.10;58.90
28087;DHT22;15392;48.912;8.380;2022-12-07T05:28:30;9.10;59.00
28087;DHT22;15392;48.912;8.380;2022-12-07T05:30:56;9.20;59.00
28087;DHT22;15392;48.912;8.380;2022-12-07T05:33:21;9.20;58.90
28087;DHT22;15392;48.912;8.380;2022-12-07T05:35:47;9.20;58.80
28087;DHT22;15392;48.912;8.380;2022-12-07T05:38:13;9.20;58.80
28087;DHT22;15392;48.912;8.380;2022-12-07T05:40:38;9.20;58.80
28087;DHT22;15392;48.912;8.380;2022-12-07T05:43:04;9.20;58.60
28087;DHT22;15392;48.912;8.380;2022-12-07T05:45:30;9.20;58.60
28087;DHT22;15392;48.912;8.380;2022-12-07T05:47:56;9.20;58.50
28087;DHT22;15392;48.912;8.380;2022-12-07T05:50:21;9.20;58.40
28087;DHT22;15392;48.912;8.380;2022-12-07T05:52:47;9.30;58.30
28087;DHT22;15392;48.912;8.380;2022-12-07T05:55:13;9.30;58.40
28087;DHT22;15392;48.912;8.380;2022-12-07T05:57:39;9.30;58.20
28087;DHT22;15392;48.912;8.380;2022-12-07T06:00:05;9.30;58.10
28087;DHT22;15392;48.912;8.380;2022-12-07T06:02:31;9.30;58.10
28087;DHT22;15392;48.912;8.380;2022-12-07T06:04:57;9.30;58.00
28087;DHT22;15392;48.912;8.380;2022-12-07T06:07:22;9.30;57.80
28087;DHT22;15392;48.912;8.380;2022-12-07T06:09:48;9.30;57.70
28087;DHT22;15392;48.912;8.380;2022-12-07T06:12:14;9.30;57.70
28087;DHT22;15392;48.912;8.380;2022-12-07T06:14:58;9.30;57.70
28087;DHT22;15392;48.912;8.380;2022-12-07T06:17:24;9.30;57.90
28087;DHT22;15392;48.912;8.380;2022-12-07T06:19:50;9.30;57.80
28087;DHT22;15392;48.912;8.380;2022-12-07T06:22:16;9.30;57.80
28087;DHT22;15392;48.912;8.380;2022-12-07T06:24:43;9.30;57.80
28087;DHT22;15392;48.912;8.380;2022-12-07T06:27:09;9.30;57.80
28087;DHT22;15392;48.912;8.380;2022-12-07T06:29:35;9.30;57.90
28087;DHT22;15392;48.912;8.380;2022-12-07T06:32:01;9.30;57.70
28087;DHT22;15392;48.912;8.380;2022-12-07T06:34:27;9.30;57.70
28087;DHT22;15392;48.912;8.380;2022-12-07T06:36:53;9.30;57.90
28087;DHT22;15392;48.912;8.380;2022-12-07T06:39:28;9.30;58.00
28087;DHT22;15392;48.912;8.380;2022-12-07T06:41:54;9.30;58.00
28087;DHT22;15392;48.912;8.380;2022-12-07T06:44:21;9.30;57.90
28087;DHT22;15392;48.912;8.380;2022-12-07T06:46:48;9.30;57.70
28087;DHT22;15392;48.912;8.380;2022-12-07T06:49:14;9.40;57.60
28087;DHT22;15392;48.912;8.380;2022-12-07T06:51:40;9.40;57.50
28087;DHT22;15392;48.912;8.380;2022-12-07T06:54:12;9.40;57.40
28087;DHT22;15392;48.912;8.380;2022-12-07T06:56:39;9.30;57.50
28087;DHT22;15392;48.912;8.380;2022-12-07T06:59:06;9.30;57.60
28087;DHT22;15392;48.912;8.380;2022-12-07T07:01:33;9.30;57.40
28087;DHT22;15392;48.912;8.380;2022-12-07T07:04:00;9.40;57.30
28087;DHT22;15392;48.912;8.380;2022-12-07T07:06:26;9.40;57.50
28087;DHT22;15392;48.912;8.380;2022-12-07T07:08:52;9.40;57.60
28087;DHT22;15392;48.912;8.380;2022-12-07T07:11:18;9.30;57.60
28087;DHT22;15392;48.912;8.380;2022-12-07T07:13:44;9.40;57.50
28087;DHT22;15392;48.912;8.380;2022-12-07T07:16:10;9.40;57.40
28087;DHT22;15392;48.912;8.380;2022-12-07T07:18:36;9.40;57.30
28087;DHT22;15392;48.912;8.380;2022-12-07T07:21:03;9.40;57.30
28087;DHT22;15392;48.912;8.380;2022-12-07T07:23:29;9.40;57.10
28087;DHT22;15392;48.912;8.380;2022-12-07T07:25:55;9.40;56.90
28087;DHT22;15392;48.912;8.380;2022-12-07T07:28:21;9.40;57.00
28087;DHT22;15392;48.912;8.380;2022-12-07T07:30:47;9.40;57.10
28087;DHT22;15392;48.912;8.380;2022-12-07T07:33:13;9.40;57.20
28087;DHT22;15392;48.912;8.380;2022-12-07T07:35:39;9.40;57.20
28087;DHT22;15392;48.912;8.380;2022-12-07T07:38:05;9.40;57.00
28087;DHT22;15392;48.912;8.380;2022-12-07T07:40:31;9.40;56.80
28087;DHT22;15392;48.912;8.380;2022-12-07T07:42:57;9.40;56.60
28087;DHT22;15392;48.912;8.380;2022-12-07T07:45:25;9.40;56.70
28087;DHT22;15392;48.912;8.380;2022-12-07T07:47:51;9.40;56.60
28087;DHT22;15392;48.912;8.380;2022-12-07T07:50:17;9.40;56.30
28087;DHT22;15392;48.912;8.380;2022-12-07T07:52:44;9.40;56.30
28087;DHT22;15392;48.912;8.380;2022-12-07T07:55:10;9.40;56.40
28087;DHT22;15392;48.912;8.380;2022-12-07T07:57:38;9.40;56.50
28087;DHT22;15392;48.912;8.380;2022-12-07T08:00:07;9.40;56.60
28087;DHT22;15392;48.912;8.380;2022-12-07T08:02:34;9.40;56.40
28087;DHT22;15392;48.912;8.380;2022-12-07T08:05:00;9.40;56.30
28087;DHT22;15392;48.912;8.380;2022-12-07T08:07:27;9.40;56.50
28087;DHT22;15392;48.912;8.380;2022-12-07T08:09:53;9.40;56.40
28087;DHT22;15392;48.912;8.380;2022-12-07T08:12:19;9.40;56.50
28087;DHT22;15392;48.912;8.380;2022-12-07T08:14:45;9.40;56.50
28087;DHT22;15392;48.912;8.380;2022-12-07T08:17:10;9.40;56.40
28087;DHT22;15392;48.912;8.380;2022-12-07T08:19:36;9.40;56.40
28087;DHT22;15392;48.912;8.380;2022-12-07T08:22:02;9.40;56.40
28087;DHT22;15392;48.912;8.380;2022-12-07T08:24:27;9.40;56.30
28087;DHT22;15392;48.912;8.380;2022-12-07T08:26:53;9.40;56.20
28087;DHT22;15392;48.912;8.380;2022-12-07T08:29:19;9.40;56.40
28087;DHT22;15392;48.912;8.380;2022-12-07T08:31:46;9.30;56.40
28087;DHT22;15392;48.912;8.380;2022-12-07T08:34:12;9.30;56.60
28087;DHT22;15392;48.912;8.380;2022-12-07T08:36:39;9.40;56.60
28087;DHT22;15392;48.912;8.380;2022-12-07T08:39:05;9.40;56.70
28087;DHT22;15392;48.912;8.380;2022-12-07T08:41:31;9.40;56.70
28087;DHT22;15392;48.912;8.380;2022-12-07T08:43:57;9.40;56.70
28087;DHT22;15392;48.912;8.380;2022-12-07T08:46:36;9.30;56.50
28087;DHT22;15392;48.912;8.380;2022-12-07T08:49:18;9.40;56.80
28087;DHT22;15392;48.912;8.380;2022-12-07T08:51:46;9.40;56.90
28087;DHT22;15392;48.912;8.380;2022-12-07T08:54:15;9.40;57.00
28087;DHT22;15392;48.912;8.380;2022-12-07T08:56:42;9.40;57.10
28087;DHT22;15392;48.912;8.380;2022-12-07T08:59:09;9.40;57.20
28087;DHT22;15392;48.912;8.380;2022-12-07T09:01:35;9.40;57.20
28087;DHT22;15392;48.912;8.380;2022-12-07T09:04:01;9.40;57.20
28087;DHT22;15392;48.912;8.380;2022-12-07T09:06:27;9.40;57.20
28087;DHT22;15392;48.912;8.380;2022-12-07T09:08:56;9.40;57.20
28087;DHT22;15392;48.912;8.380;2022-12-07T09:11:23;9.40;57.10
28087;DHT22;15392;48.912;8.380;2022-12-07T09:13:49;9.40;57.20
28087;DHT22;15392;48.912;8.380;2022-12-07T09:16:15;9.40;57.20
28087;DHT22;15392;48.912;8.380;2022-12-07T09:18:40;9.30;57.20
28087;DHT22;15392;48.912;8.380;2022-12-07T09:21:07;9.40;57.30
28087;DHT22;15392;48.912;8.380;2022-12-07T09:23:33;9.40;57.30
28087;DHT22;15392;48.912;8.380;2022-12-07T09:26:03;9.40;57.40
28087;DHT22;15392;48.912;8.380;2022-12-07T09:28:33;9.40;57.50
28087;DHT22;15392;48.912;8.380;2022-12-07T09:30:59;9.40;57.60
28087;DHT22;15392;48.912;8.380;2022-12-07T09:33:24;9.40;57.60
28087;DHT22;15392;48.912;8.380;2022-12-07T09:35:51;9.40;57.60
28087;DHT22;15392;48.912;8.380;2022-12-07T09:38:19;9.30;57.50
28087;DHT22;15392;48.912;8.380;2022-12-07T09:40:45;9.30;57.50
28087;DHT22;15392;48.912;8.380;2022-12-07T09:43:18;9.30;57.50
28087;DHT22;15392;48.912;8.380;2022-12-07T09:45:48;9.30;57.50
28087;DHT22;15392;48.912;8.380;2022-12-07T09:48:23;9.40;57.60
28087;DHT22;15392;48.912;8.380;2022-12-07T09:50:55;9.40;57.60
28087;DHT22;15392;48.912;8.380;2022-12-07T09:53:37;9.40;57.60
28087;DHT22;15392;48.912;8.380;2022-12-07T09:56:04;9.40;57.50
28087;DHT22;15392;48.912;8.380;2022-12-07T09:58:31;9.40;57.60
28087;DHT22;15392;48.912;8.380;2022-12-07T10:01:18;9.40;57.60
28087;DHT22;15392;48.912;8.380;2022-12-07T10:03:53;9.40;57.30
28087;DHT22;15392;48.912;8.380;2022-12-07T10:06:21;9.40;57.50
28087;DHT22;15392;48.912;8.380;2022-12-07T10:08:47;9.40;57.50
28087;DHT22;15392;48.912;8.380;2022-12-07T10:11:13;9.40;57.60
28087;DHT22;15392;48.912;8.380;2022-12-07T10:13:41;9.50;57.60
28087;DHT22;15392;48.912;8.380;2022-12-07T10:16:38;9.50;57.50
28087;DHT22;15392;48.912;8.380;2022-12-07T10:19:23;9.50;57.20
28087;DHT22;15392;48.912;8.380;2022-12-07T10:24:41;9.50;57.10
28087;DHT22;15392;48.912;8.380;2022-12-07T10:27:26;9.50;57.20
28087;DHT22;15392;48.912;8.380;2022-12-07T10:29:57;9.50;57.20
28087;DHT22;15392;48.912;8.380;2022-12-07T10:32:35;9.50;57.30
28087;DHT22;15392;48.912;8.380;2022-12-07T10:37:56;9.60;57.30
28087;DHT22;15392;48.912;8.380;2022-12-07T10:40:32;9.60;57.40
28087;DHT22;15392;48.912;8.380;2022-12-07T10:43:26;9.60;57.40
28087;DHT22;15392;48.912;8.380;2022-12-07T10:46:24;9.60;57.20
28087;DHT22;15392;48.912;8.380;2022-12-07T10:49:28;9.60;57.30
28087;DHT22;15392;48.912;8.380;2022-12-07T10:52:22;9.60;57.40
28087;DHT22;15392;48.912;8.380;2022-12-07T11:00:37;9.70;57.50
28087;DHT22;15392;48.912;8.380;2022-12-07T11:06:01;9.70;57.30
28087;DHT22;15392;48.912;8.380;2022-12-07T11:15:28;9.80;57.20
28087;DHT22;15392;48.912;8.380;2022-12-07T11:21:09;9.80;57.00
28087;DHT22;15392;48.912;8.380;2022-12-07T11:24:06;9.90;57.20
28087;DHT22;15392;48.912;8.380;2022-12-07T11:27:20;9.90;57.30
28087;DHT22;15392;48.912;8.380;2022-12-07T11:30:54;9.90;56.80
28087;DHT22;15392;48.912;8.380;2022-12-07T11:33:29;9.90;57.10
28087;DHT22;15392;48.912;8.380;2022-12-07T11:39:23;9.90;57.00
28087;DHT22;15392;48.912;8.380;2022-12-07T11:42:29;9.90;56.60
28087;DHT22;15392;48.912;8.380;2022-12-07T11:45:09;9.90;56.80
28087;DHT22;15392;48.912;8.380;2022-12-07T11:48:05;9.90;56.90
28087;DHT22;15392;48.912;8.380;2022-12-07T11:50:43;9.90;56.90
28087;DHT22;15392;48.912;8.380;2022-12-07T11:53:26;9.90;57.00
28087;DHT22;15392;48.912;8.380;2022-12-07T11:55:58;9.90;57.00
28087;DHT22;15392;48.912;8.380;2022-12-07T12:01:33;9.90;57.00
28087;DHT22;15392;48.912;8.380;2022-12-07T12:06:45;10.00;57.00
28087;DHT22;15392;48.912;8.380;2022-12-07T12:21:45;10.00;56.90
28087;DHT22;15392;48.912;8.380;2022-12-07T12:24:18;10.00;57.00
28087;DHT22;15392;48.912;8.380;2022-12-07T12:27:01;10.00;57.00
28087;DHT22;15392;48.912;8.380;2022-12-07T12:29:42;10.00;57.00
28087;DHT22;15392;48.912;8.380;2022-12-07T12:32:35;10.00;57.00
28087;DHT22;15392;48.912;8.380;2022-12-07T12:37:53;10.00;56.90
28087;DHT22;15392;48.912;8.380;2022-12-07T12:42:57;10.10;57.10
28087;DHT22;15392;48.912;8.380;2022-12-07T12:45:27;10.10;57.20
28087;DHT22;15392;48.912;8.380;2022-12-07T12:48:04;10.10;57.20
28087;DHT22;15392;48.912;8.380;2022-12-07T12:50:34;10.10;56.90
28087;DHT22;15392;48.912;8.380;2022-12-07T12:58:39;10.00;56.80
28087;DHT22;15392;48.912;8.380;2022-12-07T13:01:41;10.10;57.00
28087;DHT22;15392;48.912;8.380;2022-12-07T13:04:47;10.10;56.80
28087;DHT22;15392;48.912;8.380;2022-12-07T13:07:51;10.10;56.80
28087;DHT22;15392;48.912;8.380;2022-12-07T13:13:04;10.00;56.90
28087;DHT22;15392;48.912;8.380;2022-12-07T13:18:41;10.10;57.00
28087;DHT22;15392;48.912;8.380;2022-12-07T13:26:17;10.00;57.10
28087;DHT22;15392;48.912;8.380;2022-12-07T13:29:11;10.10;57.20
28087;DHT22;15392;48.912;8.380;2022-12-07T13:31:44;10.00;57.10
28087;DHT22;15392;48.912;8.380;2022-12-07T13:34:35;10.10;57.20
28087;DHT22;15392;48.912;8.380;2022-12-07T13:37:16;10.10;57.20
28087;DHT22;15392;48.912;8.380;2022-12-07T13:40:00;10.10;57.20
28087;DHT22;15392;48.912;8.380;2022-12-07T13:42:44;10.00;57.20
28087;DHT22;15392;48.912;8.380;2022-12-07T13:45:26;10.00;57.30
28087;DHT22;15392;48.912;8.380;2022-12-07T13:48:31;10.10;57.20
28087;DHT22;15392;48.912;8.380;2022-12-07T13:50:59;10.00;57.10
28087;DHT22;15392;48.912;8.380;2022-12-07T13:53:27;10.10;57.20
28087;DHT22;15392;48.912;8.380;2022-12-07T13:55:59;10.00;57.20
28087;DHT22;15392;48.912;8.380;2022-12-07T13:58:29;10.00;57.30
28087;DHT22;15392;48.912;8.380;2022-12-07T14:00:56;10.00;57.30
28087;DHT22;15392;48.912;8.380;2022-12-07T14:03:28;10.00;57.30
28087;DHT22;15392;48.912;8.380;2022-12-07T14:08:31;10.00;57.30
28087;DHT22;15392;48.912;8.380;2022-12-07T14:10:57;10.00;57.50
28087;DHT22;15392;48.912;8.380;2022-12-07T14:13:35;10.10;57.50
28087;DHT22;15392;48.912;8.380;2022-12-07T14:16:30;10.10;57.40
28087;DHT22;15392;48.912;8.380;2022-12-07T14:18:59;10.00;57.40
28087;DHT22;15392;48.912;8.380;2022-12-07T14:21:29;10.00;57.50
28087;DHT22;15392;48.912;8.380;2022-12-07T14:24:22;10.10;57.60
28087;DHT22;15392;48.912;8.380;2022-12-07T14:26:49;10.10;57.40
28087;DHT22;15392;48.912;8.380;2022-12-07T14:31:51;10.10;57.40
28087;DHT22;15392;48.912;8.380;2022-12-07T14:34:20;10.10;57.50
28087;DHT22;15392;48.912;8.380;2022-12-07T14:36:46;10.10;57.60
28087;DHT22;15392;48.912;8.380;2022-12-07T14:39:12;10.10;57.60
28087;DHT22;15392;48.912;8.380;2022-12-07T14:41:38;10.10;57.50
28087;DHT22;15392;48.912;8.380;2022-12-07T14:44:17;10.10;57.50
28087;DHT22;15392;48.912;8.380;2022-12-07T14:46:44;10.20;57.60
28087;DHT22;15392;48.912;8.380;2022-12-07T14:49:10;10.10;57.50
28087;DHT22;15392;48.912;8.380;2022-12-07T14:51:38;10.20;57.60
28087;DHT22;15392;48.912;8.380;2022-12-07T14:54:06;10.20;57.60
28087;DHT22;15392;48.912;8.380;2022-12-07T14:56:38;10.20;57.70
28087;DHT22;15392;48.912;8.380;2022-12-07T14:59:03;10.20;57.60
28087;DHT22;15392;48.912;8.380;2022-12-07T15:01:29;10.20;57.60
28087;DHT22;15392;48.912;8.380;2022-12-07T15:03:55;10.20;57.50
28087;DHT22;15392;48.912;8.380;2022-12-07T15:06:20;10.20;57.50
28087;DHT22;15392;48.912;8.380;2022-12-07T15:08:46;10.20;57.50
28087;DHT22;15392;48.912;8.380;2022-12-07T15:11:14;10.20;57.50
28087;DHT22;15392;48.912;8.380;2022-12-07T15:13:40;10.20;57.50
28087;DHT22;15392;48.912;8.380;2022-12-07T15:16:24;10.20;57.40
28087;DHT22;15392;48.912;8.380;2022-12-07T15:18:50;10.20;57.30
28087;DHT22;15392;48.912;8.380;2022-12-07T15:21:17;10.10;57.20
28087;DHT22;15392;48.912;8.380;2022-12-07T15:23:42;10.10;57.20
28087;DHT22;15392;48.912;8.380;2022-12-07T15:26:12;10.10;57.20
28087;DHT22;15392;48.912;8.380;2022-12-07T15:28:41;10.10;57.20
28087;DHT22;15392;48.912;8.380;2022-12-07T15:31:17;10.10;57.40
28087;DHT22;15392;48.912;8.380;2022-12-07T15:33:43;10.10;57.40
28087;DHT22;15392;48.912;8.380;2022-12-07T15:36:22;10.10;57.40
28087;DHT22;15392;48.912;8.380;2022-12-07T15:38:50;10.10;57.30
28087;DHT22;15392;48.912;8.380;2022-12-07T15:41:16;10.10;57.30
28087;DHT22;15392;48.912;8.380;2022-12-07T15:43:43;10.10;57.30
28087;DHT22;15392;48.912;8.380;2022-12-07T15:46:32;10.10;57.20
28087;DHT22;15392;48.912;8.380;2022-12-07T15:48:59;10.10;57.10
28087;DHT22;15392;48.912;8.380;2022-12-07T15:51:25;10.10;57.20
28087;DHT22;15392;48.912;8.380;2022-12-07T15:53:52;10.00;57.20
28087;DHT22;15392;48.912;8.380;2022-12-07T15:56:18;10.00;57.20
28087;DHT22;15392;48.912;8.380;2022-12-07T15:58:44;10.00;57.30
28087;DHT22;15392;48.912;8.380;2022-12-07T16:01:15;10.00;57.30
28087;DHT22;15392;48.912;8.380;2022-12-07T16:03:43;10.00;57.30
28087;DHT22;15392;48.912;8.380;2022-12-07T16:06:09;10.00;57.30
28087;DHT22;15392;48.912;8.380;2022-12-07T16:08:34;10.00;57.30
28087;DHT22;15392;48.912;8.380;2022-12-07T16:11:04;10.00;57.30
28087;DHT22;15392;48.912;8.380;2022-12-07T16:13:30;10.00;57.30
28087;DHT22;15392;48.912;8.380;2022-12-07T16:15:56;9.90;57.20
28087;DHT22;15392;48.912;8.380;2022-12-07T16:18:22;10.00;57.30
28087;DHT22;15392;48.912;8.380;2022-12-07T16:20:48;9.90;57.20
28087;DHT22;15392;48.912;8.380;2022-12-07T16:23:15;9.90;57.10
28087;DHT22;15392;48.912;8.380;2022-12-07T16:25:41;9.90;57.10
28087;DHT22;15392;48.912;8.380;2022-12-07T16:28:07;9.90;57.20
28087;DHT22;15392;48.912;8.380;2022-12-07T16:30:33;9.90;57.20
28087;DHT22;15392;48.912;8.380;2022-12-07T16:32:59;9.90;57.20
28087;DHT22;15392;48.912;8.380;2022-12-07T16:35:25;9.90;57.20
28087;DHT22;15392;48.912;8.380;2022-12-07T16:37:50;9.90;57.20
28087;DHT22;15392;48.912;8.380;2022-12-07T16:40:16;9.90;57.20
28087;DHT22;15392;48.912;8.380;2022-12-07T16:42:42;9.90;57.10
28087;DHT22;15392;48.912;8.380;2022-12-07T16:45:08;9.90;57.20
28087;DHT22;15392;48.912;8.380;2022-12-07T16:47:40;9.80;57.20
28087;DHT22;15392;48.912;8.380;2022-12-07T16:50:06;9.80;57.30
28087;DHT22;15392;48.912;8.380;2022-12-07T16:52:33;9.80;57.30
28087;DHT22;15392;48.912;8.380;2022-12-07T16:54:59;9.80;57.30
28087;DHT22;15392;48.912;8.380;2022-12-07T16:57:25;9.80;57.30
28087;DHT22;15392;48.912;8.380;2022-12-07T16:59:52;9.80;57.30
28087;DHT22;15392;48.912;8.380;2022-12-07T17:02:18;9.80;57.30
28087;DHT22;15392;48.912;8.380;2022-12-07T17:04:44;9.80;57.40
28087;DHT22;15392;48.912;8.380;2022-12-07T17:07:10;9.80;57.40
28087;DHT22;15392;48.912;8.380;2022-12-07T17:09:36;9.80;57.40
28087;DHT22;15392;48.912;8.380;2022-12-07T17:12:02;9.80;57.40
28087;DHT22;15392;48.912;8.380;2022-12-07T17:14:28;9.80;57.40
28087;DHT22;15392;48.912;8.380;2022-12-07T17:17:12;9.80;57.30
28087;DHT22;15392;48.912;8.380;2022-12-07T17:19:38;9.80;57.30
28087;DHT22;15392;48.912;8.380;2022-12-07T17:22:04;9.80;57.20
28087;DHT22;15392;48.912;8.380;2022-12-07T17:24:30;9.80;57.30
28087;DHT22;15392;48.912;8.380;2022-12-07T17:26:56;9.80;57.20
28087;DHT22;15392;48.912;8.380;2022-12-07T17:29:22;9.80;57.20
28087;DHT22;15392;48.912;8.380;2022-12-07T17:31:48;9.80;57.20
28087;DHT22;15392;48.912;8.380;2022-12-07T17:34:14;9.70;57.20
28087;DHT22;15392;48.912;8.380;2022-12-07T17:36:41;9.80;57.30
28087;DHT22;15392;48.912;8.380;2022-12-07T17:39:09;9.70;57.30
28087;DHT22;15392;48.912;8.380;2022-12-07T17:41:36;9.70;57.20
28087;DHT22;15392;48.912;8.380;2022-12-07T17:44:21;9.70;57.20